sensor_id;sensor_type;location;lat;lon;timestamp;P1;durP1;ratioP1;P2;durP2;ratioP2
74945;SDS011;63509;45.250;38.102;2023-02-23T00:01:25;8.95;;;4.93;;
74945;SDS011;63509;45.250;38.102;2023-02-23T00:03:54;10.07;;;4.53;;
74945;SDS011;63509;45.250;38.102;2023-02-23T00:06:22;9.32;;;5.15;;
74945;SDS011;63509;45.250;38.102;2023-02-23T00:08:50;7.13;;;4.38;;
74945;SDS011;63509;45.250;38.102;2023-02-23T00:11:16;7.82;;;4.82;;
74945;SDS011;63509;45.250;38.102;2023-02-23T00:13:44;10.80;;;5.00;;
74945;SDS011;63509;45.250;38.102;2023-02-23T00:16:13;8.57;;;4.82;;
74945;SDS011;63509;45.250;38.102;2023-02-23T00:18:48;9.70;;;5.93;;
74945;SDS011;63509;45.250;38.102;2023-02-23T00:21:19;17.75;;;10.45;;
74945;SDS011;63509;45.250;38.102;2023-02-23T00:23:57;24.80;;;11.65;;
74945;SDS011;63509;45.250;38.102;2023-02-23T00:26:25;20.55;;;10.35;;
74945;SDS011;63509;45.250;38.102;2023-02-23T00:28:56;15.10;;;8.95;;
74945;SDS011;63509;45.250;38.102;2023-02-23T00:31:23;16.25;;;6.85;;
74945;SDS011;63509;45.250;38.102;2023-02-23T00:33:56;12.85;;;5.97;;
74945;SDS011;63509;45.250;38.102;2023-02-23T00:36:24;9.50;;;5.47;;
74945;SDS011;63509;45.250;38.102;2023-02-23T00:38:53;9.57;;;5.30;;
74945;SDS011;63509;45.250;38.102;2023-02-23T00:41:21;9.40;;;5.05;;
74945;SDS011;63509;45.250;38.102;2023-02-23T00:43:49;10.63;;;5.88;;
74945;SDS011;63509;45.250;38.102;2023-02-23T00:46:19;8.98;;;5.00;;
74945;SDS011;63509;45.250;38.102;2023-02-23T00:48:49;9.82;;;4.85;;
74945;SDS011;63509;45.250;38.102;2023-02-23T00:51:17;9.00;;;5.68;;
74945;SDS011;63509;45.250;38.102;2023-02-23T00:53:43;10.93;;;5.00;;
74945;SDS011;63509;45.250;38.102;2023-02-23T00:56:11;8.10;;;5.28;;
74945;SDS011;63509;45.250;38.102;2023-02-23T00:58:38;8.65;;;5.35;;
74945;SDS011;63509;45.250;38.102;2023-02-23T01:01:06;8.30;;;5.15;;
74945;SDS011;63509;45.250;38.102;2023-02-23T01:03:34;8.77;;;4.45;;
74945;SDS011;63509;45.250;38.102;2023-02-23T01:06:02;7.68;;;4.60;;
74945;SDS011;63509;45.250;38.102;2023-02-23T01:08:31;9.35;;;5.43;;
74945;SDS011;63509;45.250;38.102;2023-02-23T01:10:58;10.45;;;4.90;;
74945;SDS011;63509;45.250;38.102;2023-02-23T01:13:30;7.47;;;4.25;;
74945;SDS011;63509;45.250;38.102;2023-02-23T01:15:56;11.07;;;4.53;;
74945;SDS011;63509;45.250;38.102;2023-02-23T01:18:24;9.00;;;4.80;;
74945;SDS011;63509;45.250;38.102;2023-02-23T01:20:50;11.18;;;5.47;;
74945;SDS011;63509;45.250;38.102;2023-02-23T01:23:16;8.50;;;4.78;;
74945;SDS011;63509;45.250;38.102;2023-02-23T01:25:45;6.93;;;4.78;;
74945;SDS011;63509;45.250;38.102;2023-02-23T01:28:12;8.82;;;4.00;;
74945;SDS011;63509;45.250;38.102;2023-02-23T01:30:38;5.80;;;3.78;;
74945;SDS011;63509;45.250;38.102;2023-02-23T01:33:06;6.85;;;4.35;;
74945;SDS011;63509;45.250;38.102;2023-02-23T01:35:32;8.13;;;4.20;;
74945;SDS011;63509;45.250;38.102;2023-02-23T01:37:58;18.52;;;5.10;;
74945;SDS011;63509;45.250;38.102;2023-02-23T01:40:25;8.02;;;4.50;;
74945;SDS011;63509;45.250;38.102;2023-02-23T01:45:24;7.55;;;4.50;;
74945;SDS011;63509;45.250;38.102;2023-02-23T01:47:55;7.85;;;4.32;;
74945;SDS011;63509;45.250;38.102;2023-02-23T01:50:26;6.82;;;3.63;;
74945;SDS011;63509;45.250;38.102;2023-02-23T01:52:55;11.20;;;4.45;;
74945;SDS011;63509;45.250;38.102;2023-02-23T01:55:23;7.05;;;4.03;;
74945;SDS011;63509;45.250;38.102;2023-02-23T01:57:56;7.20;;;4.13;;
74945;SDS011;63509;45.250;38.102;2023-02-23T02:00:28;9.48;;;4.82;;
74945;SDS011;63509;45.250;38.102;2023-02-23T02:02:57;7.43;;;4.10;;
74945;SDS011;63509;45.250;38.102;2023-02-23T02:05:25;7.25;;;4.80;;
74945;SDS011;63509;45.250;38.102;2023-02-23T02:07:53;7.82;;;4.88;;
74945;SDS011;63509;45.250;38.102;2023-02-23T02:10:26;8.93;;;4.47;;
74945;SDS011;63509;45.250;38.102;2023-02-23T02:13:05;11.70;;;5.82;;
74945;SDS011;63509;45.250;38.102;2023-02-23T02:15:37;8.48;;;4.80;;
74945;SDS011;63509;45.250;38.102;2023-02-23T02:18:23;7.28;;;4.65;;
74945;SDS011;63509;45.250;38.102;2023-02-23T02:37:38;12.93;;;6.03;;
74945;SDS011;63509;45.250;38.102;2023-02-23T02:40:40;10.63;;;5.85;;
74945;SDS011;63509;45.250;38.102;2023-02-23T02:50:53;15.70;;;8.50;;
74945;SDS011;63509;45.250;38.102;2023-02-23T02:56:02;16.30;;;8.38;;
74945;SDS011;63509;45.250;38.102;2023-02-23T02:58:33;16.15;;;8.85;;
74945;SDS011;63509;45.250;38.102;2023-02-23T03:01:05;18.10;;;9.45;;
74945;SDS011;63509;45.250;38.102;2023-02-23T03:03:52;21.05;;;10.05;;
74945;SDS011;63509;45.250;38.102;2023-02-23T03:09:40;25.25;;;9.07;;
74945;SDS011;63509;45.250;38.102;2023-02-23T03:21:01;17.75;;;8.45;;
74945;SDS011;63509;45.250;38.102;2023-02-23T03:26:57;27.42;;;10.32;;
74945;SDS011;63509;45.250;38.102;2023-02-23T03:32:54;19.60;;;9.45;;
74945;SDS011;63509;45.250;38.102;2023-02-23T03:38:52;19.60;;;9.13;;
74945;SDS011;63509;45.250;38.102;2023-02-23T03:42:01;20.05;;;9.18;;
74945;SDS011;63509;45.250;38.102;2023-02-23T03:44:50;15.80;;;8.60;;
74945;SDS011;63509;45.250;38.102;2023-02-23T03:47:37;16.88;;;8.25;;
74945;SDS011;63509;45.250;38.102;2023-02-23T03:50:33;18.55;;;9.40;;
74945;SDS011;63509;45.250;38.102;2023-02-23T03:53:23;17.27;;;7.88;;
74945;SDS011;63509;45.250;38.102;2023-02-23T03:56:25;17.92;;;7.97;;
74945;SDS011;63509;45.250;38.102;2023-02-23T03:59:12;15.93;;;8.85;;
74945;SDS011;63509;45.250;38.102;2023-02-23T04:02:02;16.95;;;7.45;;
74945;SDS011;63509;45.250;38.102;2023-02-23T04:04:49;18.00;;;7.95;;
74945;SDS011;63509;45.250;38.102;2023-02-23T04:07:36;19.05;;;8.52;;
74945;SDS011;63509;45.250;38.102;2023-02-23T04:10:23;15.88;;;7.60;;
74945;SDS011;63509;45.250;38.102;2023-02-23T04:13:19;17.30;;;8.30;;
74945;SDS011;63509;45.250;38.102;2023-02-23T04:15:53;14.48;;;6.95;;
74945;SDS011;63509;45.250;38.102;2023-02-23T04:18:25;14.48;;;6.03;;
74945;SDS011;63509;45.250;38.102;2023-02-23T04:20:57;15.68;;;8.85;;
74945;SDS011;63509;45.250;38.102;2023-02-23T04:23:25;17.52;;;8.80;;
74945;SDS011;63509;45.250;38.102;2023-02-23T04:25:52;14.57;;;7.13;;
74945;SDS011;63509;45.250;38.102;2023-02-23T04:28:19;23.63;;;8.27;;
74945;SDS011;63509;45.250;38.102;2023-02-23T04:30:46;19.50;;;9.45;;
74945;SDS011;63509;45.250;38.102;2023-02-23T04:33:12;22.20;;;11.10;;
74945;SDS011;63509;45.250;38.102;2023-02-23T04:35:38;17.98;;;9.23;;
74945;SDS011;63509;45.250;38.102;2023-02-23T04:38:05;18.58;;;11.02;;
74945;SDS011;63509;45.250;38.102;2023-02-23T04:40:31;18.40;;;9.32;;
74945;SDS011;63509;45.250;38.102;2023-02-23T04:42:57;16.90;;;8.00;;
74945;SDS011;63509;45.250;38.102;2023-02-23T04:45:24;19.67;;;8.25;;
74945;SDS011;63509;45.250;38.102;2023-02-23T04:47:50;15.30;;;7.40;;
74945;SDS011;63509;45.250;38.102;2023-02-23T04:50:17;15.25;;;7.82;;
74945;SDS011;63509;45.250;38.102;2023-02-23T04:52:43;15.52;;;8.18;;
74945;SDS011;63509;45.250;38.102;2023-02-23T04:55:17;11.25;;;7.03;;
74945;SDS011;63509;45.250;38.102;2023-02-23T04:57:44;15.73;;;8.15;;
74945;SDS011;63509;45.250;38.102;2023-02-23T05:00:10;19.80;;;8.32;;
74945;SDS011;63509;45.250;38.102;2023-02-23T05:02:37;14.52;;;7.07;;
74945;SDS011;63509;45.250;38.102;2023-02-23T05:05:03;17.95;;;8.68;;
74945;SDS011;63509;45.250;38.102;2023-02-23T05:07:29;14.48;;;7.47;;
74945;SDS011;63509;45.250;38.102;2023-02-23T05:09:55;15.57;;;6.97;;
74945;SDS011;63509;45.250;38.102;2023-02-23T05:12:21;12.95;;;8.02;;
74945;SDS011;63509;45.250;38.102;2023-02-23T05:14:47;13.90;;;6.70;;
74945;SDS011;63509;45.250;38.102;2023-02-23T05:17:14;13.07;;;7.57;;
74945;SDS011;63509;45.250;38.102;2023-02-23T05:19:40;18.20;;;8.23;;
74945;SDS011;63509;45.250;38.102;2023-02-23T05:22:06;15.23;;;7.53;;
74945;SDS011;63509;45.250;38.102;2023-02-23T05:24:32;12.50;;;7.25;;
74945;SDS011;63509;45.250;38.102;2023-02-23T05:26:58;13.85;;;7.65;;
74945;SDS011;63509;45.250;38.102;2023-02-23T05:29:24;14.82;;;7.38;;
74945;SDS011;63509;45.250;38.102;2023-02-23T05:31:51;14.90;;;6.97;;
74945;SDS011;63509;45.250;38.102;2023-02-23T05:34:17;13.90;;;6.78;;
74945;SDS011;63509;45.250;38.102;2023-02-23T05:36:43;12.05;;;6.82;;
74945;SDS011;63509;45.250;38.102;2023-02-23T05:39:09;12.68;;;7.95;;
74945;SDS011;63509;45.250;38.102;2023-02-23T05:41:35;15.25;;;8.43;;
74945;SDS011;63509;45.250;38.102;2023-02-23T05:44:01;13.75;;;7.90;;
74945;SDS011;63509;45.250;38.102;2023-02-23T05:46:27;13.55;;;6.93;;
74945;SDS011;63509;45.250;38.102;2023-02-23T05:48:58;13.20;;;7.68;;
74945;SDS011;63509;45.250;38.102;2023-02-23T05:51:26;13.77;;;7.10;;
74945;SDS011;63509;45.250;38.102;2023-02-23T05:53:53;14.95;;;7.45;;
74945;SDS011;63509;45.250;38.102;2023-02-23T05:56:19;14.10;;;7.07;;
74945;SDS011;63509;45.250;38.102;2023-02-23T05:58:46;15.05;;;6.95;;
74945;SDS011;63509;45.250;38.102;2023-02-23T06:01:18;15.38;;;9.45;;
74945;SDS011;63509;45.250;38.102;2023-02-23T06:03:46;15.43;;;7.80;;
74945;SDS011;63509;45.250;38.102;2023-02-23T06:06:13;14.88;;;7.28;;
74945;SDS011;63509;45.250;38.102;2023-02-23T06:08:39;13.32;;;7.68;;
74945;SDS011;63509;45.250;38.102;2023-02-23T06:11:06;14.10;;;7.82;;
74945;SDS011;63509;45.250;38.102;2023-02-23T06:13:32;23.58;;;7.20;;
74945;SDS011;63509;45.250;38.102;2023-02-23T06:15:58;12.55;;;7.32;;
74945;SDS011;63509;45.250;38.102;2023-02-23T06:18:25;14.48;;;7.88;;
74945;SDS011;63509;45.250;38.102;2023-02-23T06:20:52;14.63;;;7.15;;
74945;SDS011;63509;45.250;38.102;2023-02-23T06:23:18;35.10;;;10.32;;
74945;SDS011;63509;45.250;38.102;2023-02-23T06:25:45;15.77;;;7.78;;
74945;SDS011;63509;45.250;38.102;2023-02-23T06:28:11;19.63;;;7.60;;
74945;SDS011;63509;45.250;38.102;2023-02-23T06:30:38;16.67;;;8.00;;
74945;SDS011;63509;45.250;38.102;2023-02-23T06:33:06;14.82;;;8.07;;
74945;SDS011;63509;45.250;38.102;2023-02-23T06:35:32;17.40;;;9.25;;
74945;SDS011;63509;45.250;38.102;2023-02-23T06:37:59;14.68;;;7.68;;
74945;SDS011;63509;45.250;38.102;2023-02-23T06:40:26;23.08;;;8.82;;
74945;SDS011;63509;45.250;38.102;2023-02-23T06:42:53;22.20;;;8.60;;
74945;SDS011;63509;45.250;38.102;2023-02-23T06:45:19;18.98;;;8.93;;
74945;SDS011;63509;45.250;38.102;2023-02-23T06:47:45;17.73;;;8.15;;
74945;SDS011;63509;45.250;38.102;2023-02-23T06:50:12;19.20;;;7.82;;
74945;SDS011;63509;45.250;38.102;2023-02-23T06:52:39;15.45;;;6.82;;
74945;SDS011;63509;45.250;38.102;2023-02-23T06:55:06;15.48;;;8.35;;
74945;SDS011;63509;45.250;38.102;2023-02-23T06:57:32;28.83;;;8.68;;
74945;SDS011;63509;45.250;38.102;2023-02-23T06:59:59;20.13;;;8.02;;
74945;SDS011;63509;45.250;38.102;2023-02-23T07:02:26;16.10;;;6.88;;
74945;SDS011;63509;45.250;38.102;2023-02-23T07:04:52;14.38;;;7.75;;
74945;SDS011;63509;45.250;38.102;2023-02-23T07:07:18;16.02;;;7.93;;
74945;SDS011;63509;45.250;38.102;2023-02-23T07:09:44;15.75;;;7.78;;
74945;SDS011;63509;45.250;38.102;2023-02-23T07:12:10;16.33;;;7.05;;
74945;SDS011;63509;45.250;38.102;2023-02-23T07:14:37;16.80;;;6.80;;
74945;SDS011;63509;45.250;38.102;2023-02-23T07:17:03;15.65;;;7.10;;
74945;SDS011;63509;45.250;38.102;2023-02-23T07:19:30;16.13;;;8.45;;
74945;SDS011;63509;45.250;38.102;2023-02-23T07:21:57;21.58;;;8.25;;
74945;SDS011;63509;45.250;38.102;2023-02-23T07:24:23;12.75;;;7.13;;
74945;SDS011;63509;45.250;38.102;2023-02-23T07:26:49;19.25;;;8.65;;
74945;SDS011;63509;45.250;38.102;2023-02-23T07:29:16;18.25;;;7.00;;
74945;SDS011;63509;45.250;38.102;2023-02-23T07:31:43;21.52;;;8.00;;
74945;SDS011;63509;45.250;38.102;2023-02-23T07:34:09;15.35;;;7.57;;
74945;SDS011;63509;45.250;38.102;2023-02-23T07:36:36;17.23;;;8.38;;
74945;SDS011;63509;45.250;38.102;2023-02-23T07:39:05;23.25;;;9.32;;
74945;SDS011;63509;45.250;38.102;2023-02-23T07:41:32;23.35;;;9.05;;
74945;SDS011;63509;45.250;38.102;2023-02-23T07:43:59;13.25;;;8.13;;
74945;SDS011;63509;45.250;38.102;2023-02-23T07:46:25;16.42;;;7.53;;
74945;SDS011;63509;45.250;38.102;2023-02-23T07:48:51;15.30;;;6.93;;
74945;SDS011;63509;45.250;38.102;2023-02-23T07:51:17;13.05;;;6.78;;
74945;SDS011;63509;45.250;38.102;2023-02-23T07:53:44;15.60;;;7.25;;
74945;SDS011;63509;45.250;38.102;2023-02-23T07:56:10;14.60;;;7.65;;
74945;SDS011;63509;45.250;38.102;2023-02-23T07:58:38;20.75;;;8.05;;
74945;SDS011;63509;45.250;38.102;2023-02-23T08:01:05;11.50;;;6.82;;
74945;SDS011;63509;45.250;38.102;2023-02-23T08:03:32;10.32;;;5.85;;
74945;SDS011;63509;45.250;38.102;2023-02-23T08:05:58;14.23;;;7.43;;
74945;SDS011;63509;45.250;38.102;2023-02-23T08:08:24;22.67;;;8.60;;
74945;SDS011;63509;45.250;38.102;2023-02-23T08:10:57;13.75;;;6.93;;
74945;SDS011;63509;45.250;38.102;2023-02-23T08:13:25;19.15;;;7.47;;
74945;SDS011;63509;45.250;38.102;2023-02-23T08:15:51;16.92;;;7.88;;
74945;SDS011;63509;45.250;38.102;2023-02-23T08:18:20;14.45;;;6.00;;
74945;SDS011;63509;45.250;38.102;2023-02-23T08:20:46;16.08;;;6.93;;
74945;SDS011;63509;45.250;38.102;2023-02-23T08:23:12;16.80;;;7.68;;
74945;SDS011;63509;45.250;38.102;2023-02-23T08:25:38;12.13;;;7.55;;
74945;SDS011;63509;45.250;38.102;2023-02-23T08:28:04;15.48;;;8.27;;
74945;SDS011;63509;45.250;38.102;2023-02-23T08:30:31;13.20;;;6.95;;
74945;SDS011;63509;45.250;38.102;2023-02-23T08:32:57;13.05;;;5.60;;
74945;SDS011;63509;45.250;38.102;2023-02-23T08:35:28;11.52;;;6.10;;
74945;SDS011;63509;45.250;38.102;2023-02-23T08:37:56;17.13;;;5.88;;
74945;SDS011;63509;45.250;38.102;2023-02-23T08:40:25;11.40;;;6.38;;
74945;SDS011;63509;45.250;38.102;2023-02-23T08:42:52;12.88;;;6.18;;
74945;SDS011;63509;45.250;38.102;2023-02-23T08:47:47;14.60;;;7.15;;
74945;SDS011;63509;45.250;38.102;2023-02-23T08:50:13;15.80;;;7.68;;
74945;SDS011;63509;45.250;38.102;2023-02-23T08:52:39;14.75;;;8.07;;
74945;SDS011;63509;45.250;38.102;2023-02-23T08:55:07;18.10;;;8.00;;
74945;SDS011;63509;45.250;38.102;2023-02-23T08:57:36;14.18;;;6.30;;
74945;SDS011;63509;45.250;38.102;2023-02-23T09:00:02;15.13;;;7.03;;
74945;SDS011;63509;45.250;38.102;2023-02-23T09:02:39;10.75;;;6.28;;
74945;SDS011;63509;45.250;38.102;2023-02-23T09:05:06;15.27;;;8.27;;
74945;SDS011;63509;45.250;38.102;2023-02-23T09:07:32;19.27;;;7.65;;
74945;SDS011;63509;45.250;38.102;2023-02-23T09:09:59;18.42;;;7.53;;
74945;SDS011;63509;45.250;38.102;2023-02-23T09:12:25;12.73;;;7.28;;
74945;SDS011;63509;45.250;38.102;2023-02-23T09:14:51;12.80;;;7.32;;
74945;SDS011;63509;45.250;38.102;2023-02-23T09:17:18;17.38;;;6.88;;
74945;SDS011;63509;45.250;38.102;2023-02-23T09:19:48;13.38;;;6.78;;
74945;SDS011;63509;45.250;38.102;2023-02-23T09:22:14;12.48;;;5.57;;
74945;SDS011;63509;45.250;38.102;2023-02-23T09:24:42;14.77;;;7.13;;
74945;SDS011;63509;45.250;38.102;2023-02-23T09:27:09;11.93;;;6.60;;
74945;SDS011;63509;45.250;38.102;2023-02-23T09:29:37;13.57;;;5.65;;
74945;SDS011;63509;45.250;38.102;2023-02-23T09:32:06;11.02;;;6.60;;
74945;SDS011;63509;45.250;38.102;2023-02-23T09:34:33;17.52;;;6.35;;
74945;SDS011;63509;45.250;38.102;2023-02-23T09:37:02;10.68;;;5.85;;
74945;SDS011;63509;45.250;38.102;2023-02-23T09:39:28;13.98;;;6.60;;
74945;SDS011;63509;45.250;38.102;2023-02-23T09:47:24;15.63;;;7.20;;
74945;SDS011;63509;45.250;38.102;2023-02-23T09:50:27;12.70;;;7.05;;
74945;SDS011;63509;45.250;38.102;2023-02-23T09:53:20;17.65;;;8.55;;
74945;SDS011;63509;45.250;38.102;2023-02-23T09:55:47;13.38;;;7.03;;
74945;SDS011;63509;45.250;38.102;2023-02-23T09:58:26;13.65;;;6.40;;
74945;SDS011;63509;45.250;38.102;2023-02-23T10:04:25;19.77;;;9.60;;
74945;SDS011;63509;45.250;38.102;2023-02-23T10:06:32;12.45;;;6.32;;
74945;SDS011;63509;45.250;38.102;2023-02-23T10:11:44;11.88;;;6.68;;
74945;SDS011;63509;45.250;38.102;2023-02-23T10:14:41;13.20;;;7.65;;
74945;SDS011;63509;45.250;38.102;2023-02-23T10:17:24;10.10;;;5.78;;
74945;SDS011;63509;45.250;38.102;2023-02-23T10:20:02;8.80;;;4.47;;
74945;SDS011;63509;45.250;38.102;2023-02-23T10:22:51;12.55;;;6.18;;
74945;SDS011;63509;45.250;38.102;2023-02-23T10:25:23;9.18;;;5.45;;
74945;SDS011;63509;45.250;38.102;2023-02-23T10:27:51;11.50;;;5.63;;
74945;SDS011;63509;45.250;38.102;2023-02-23T10:30:21;10.73;;;5.43;;
74945;SDS011;63509;45.250;38.102;2023-02-23T10:33:01;12.32;;;6.68;;
74945;SDS011;63509;45.250;38.102;2023-02-23T10:35:50;14.02;;;6.30;;
74945;SDS011;63509;45.250;38.102;2023-02-23T10:38:20;14.00;;;7.32;;
74945;SDS011;63509;45.250;38.102;2023-02-23T10:40:50;12.98;;;5.45;;
74945;SDS011;63509;45.250;38.102;2023-02-23T10:43:19;10.30;;;6.13;;
74945;SDS011;63509;45.250;38.102;2023-02-23T10:45:47;29.63;;;11.98;;
74945;SDS011;63509;45.250;38.102;2023-02-23T10:50:49;17.38;;;8.73;;
74945;SDS011;63509;45.250;38.102;2023-02-23T10:53:21;13.80;;;6.78;;
74945;SDS011;63509;45.250;38.102;2023-02-23T10:58:38;29.77;;;12.25;;
74945;SDS011;63509;45.250;38.102;2023-02-23T11:01:11;19.95;;;9.48;;
74945;SDS011;63509;45.250;38.102;2023-02-23T11:03:41;32.50;;;13.85;;
74945;SDS011;63509;45.250;38.102;2023-02-23T11:06:29;75.95;;;31.20;;
74945;SDS011;63509;45.250;38.102;2023-02-23T11:12:14;22.02;;;9.88;;
74945;SDS011;63509;45.250;38.102;2023-02-23T11:17:26;12.15;;;4.72;;
74945;SDS011;63509;45.250;38.102;2023-02-23T11:22:34;11.68;;;5.40;;
74945;SDS011;63509;45.250;38.102;2023-02-23T11:25:02;10.73;;;6.00;;
74945;SDS011;63509;45.250;38.102;2023-02-23T11:27:45;9.00;;;4.50;;
74945;SDS011;63509;45.250;38.102;2023-02-23T11:30:15;12.35;;;5.00;;
74945;SDS011;63509;45.250;38.102;2023-02-23T11:32:55;14.73;;;7.45;;
74945;SDS011;63509;45.250;38.102;2023-02-23T11:35:25;13.85;;;7.00;;
74945;SDS011;63509;45.250;38.102;2023-02-23T11:37:53;10.70;;;5.18;;
74945;SDS011;63509;45.250;38.102;2023-02-23T11:40:25;13.80;;;8.15;;
74945;SDS011;63509;45.250;38.102;2023-02-23T11:42:56;13.23;;;8.18;;
74945;SDS011;63509;45.250;38.102;2023-02-23T11:45:32;13.00;;;5.25;;
74945;SDS011;63509;45.250;38.102;2023-02-23T11:48:14;9.73;;;4.65;;
74945;SDS011;63509;45.250;38.102;2023-02-23T11:50:47;8.10;;;4.70;;
74945;SDS011;63509;45.250;38.102;2023-02-23T11:53:15;8.82;;;4.53;;
74945;SDS011;63509;45.250;38.102;2023-02-23T11:55:51;9.18;;;4.97;;
74945;SDS011;63509;45.250;38.102;2023-02-23T11:58:21;9.80;;;5.78;;
74945;SDS011;63509;45.250;38.102;2023-02-23T12:01:02;9.30;;;4.65;;
74945;SDS011;63509;45.250;38.102;2023-02-23T12:03:37;9.10;;;4.50;;
74945;SDS011;63509;45.250;38.102;2023-02-23T12:09:21;7.07;;;4.05;;
74945;SDS011;63509;45.250;38.102;2023-02-23T12:12:04;10.18;;;4.43;;
74945;SDS011;63509;45.250;38.102;2023-02-23T12:14:36;8.13;;;4.50;;
74945;SDS011;63509;45.250;38.102;2023-02-23T12:17:13;7.97;;;4.25;;
74945;SDS011;63509;45.250;38.102;2023-02-23T12:22:14;9.00;;;3.95;;
74945;SDS011;63509;45.250;38.102;2023-02-23T12:24:52;10.05;;;4.55;;
74945;SDS011;63509;45.250;38.102;2023-02-23T12:27:33;8.07;;;3.83;;
74945;SDS011;63509;45.250;38.102;2023-02-23T12:30:41;8.90;;;3.63;;
74945;SDS011;63509;45.250;38.102;2023-02-23T12:33:14;13.73;;;4.28;;
74945;SDS011;63509;45.250;38.102;2023-02-23T12:35:55;6.70;;;3.47;;
74945;SDS011;63509;45.250;38.102;2023-02-23T12:41:25;9.63;;;4.85;;
74945;SDS011;63509;45.250;38.102;2023-02-23T12:47:36;9.40;;;4.05;;
74945;SDS011;63509;45.250;38.102;2023-02-23T12:50:13;7.18;;;4.40;;
74945;SDS011;63509;45.250;38.102;2023-02-23T12:55:54;7.40;;;4.20;;
74945;SDS011;63509;45.250;38.102;2023-02-23T12:58:45;9.63;;;4.05;;
74945;SDS011;63509;45.250;38.102;2023-02-23T13:01:28;6.85;;;4.35;;
74945;SDS011;63509;45.250;38.102;2023-02-23T13:06:32;7.20;;;4.47;;
74945;SDS011;63509;45.250;38.102;2023-02-23T13:09:51;8.35;;;5.03;;
74945;SDS011;63509;45.250;38.102;2023-02-23T13:18:10;16.98;;;5.95;;
74945;SDS011;63509;45.250;38.102;2023-02-23T13:21:04;14.95;;;6.22;;
74945;SDS011;63509;45.250;38.102;2023-02-23T13:23:40;13.27;;;7.20;;
74945;SDS011;63509;45.250;38.102;2023-02-23T13:31:43;12.20;;;4.72;;
74945;SDS011;63509;45.250;38.102;2023-02-23T13:34:11;8.30;;;4.57;;
74945;SDS011;63509;45.250;38.102;2023-02-23T13:36:46;11.70;;;6.35;;
74945;SDS011;63509;45.250;38.102;2023-02-23T13:39:21;8.93;;;5.05;;
74945;SDS011;63509;45.250;38.102;2023-02-23T13:48:34;11.88;;;5.97;;
74945;SDS011;63509;45.250;38.102;2023-02-23T13:56:22;12.73;;;5.15;;
74945;SDS011;63509;45.250;38.102;2023-02-23T13:58:59;8.57;;;4.55;;
74945;SDS011;63509;45.250;38.102;2023-02-23T14:01:28;19.33;;;4.65;;
74945;SDS011;63509;45.250;38.102;2023-02-23T14:04:20;8.57;;;5.13;;
74945;SDS011;63509;45.250;38.102;2023-02-23T14:07:13;9.68;;;4.70;;
74945;SDS011;63509;45.250;38.102;2023-02-23T14:09:36;11.52;;;4.70;;
74945;SDS011;63509;45.250;38.102;2023-02-23T14:14:38;9.95;;;4.40;;
74945;SDS011;63509;45.250;38.102;2023-02-23T14:17:10;8.00;;;4.60;;
74945;SDS011;63509;45.250;38.102;2023-02-23T14:22:37;7.82;;;5.00;;
74945;SDS011;63509;45.250;38.102;2023-02-23T14:25:51;8.00;;;4.28;;
74945;SDS011;63509;45.250;38.102;2023-02-23T14:28:38;10.77;;;4.93;;
74945;SDS011;63509;45.250;38.102;2023-02-23T14:36:01;11.85;;;6.63;;
74945;SDS011;63509;45.250;38.102;2023-02-23T14:38:49;12.00;;;4.93;;
74945;SDS011;63509;45.250;38.102;2023-02-23T14:42:07;18.92;;;7.05;;
74945;SDS011;63509;45.250;38.102;2023-02-23T14:44:29;11.45;;;5.55;;
74945;SDS011;63509;45.250;38.102;2023-02-23T14:46:59;10.00;;;6.32;;
74945;SDS011;63509;45.250;38.102;2023-02-23T14:49:37;8.15;;;4.97;;
74945;SDS011;63509;45.250;38.102;2023-02-23T14:54:51;14.40;;;4.57;;
74945;SDS011;63509;45.250;38.102;2023-02-23T14:57:34;10.25;;;6.60;;
74945;SDS011;63509;45.250;38.102;2023-02-23T15:00:05;8.82;;;4.70;;
74945;SDS011;63509;45.250;38.102;2023-02-23T15:05:22;12.15;;;4.53;;
74945;SDS011;63509;45.250;38.102;2023-02-23T15:07:56;8.70;;;5.35;;
74945;SDS011;63509;45.250;38.102;2023-02-23T15:10:25;13.63;;;4.82;;
74945;SDS011;63509;45.250;38.102;2023-02-23T15:12:55;11.63;;;4.88;;
74945;SDS011;63509;45.250;38.102;2023-02-23T15:15:23;10.60;;;4.35;;
74945;SDS011;63509;45.250;38.102;2023-02-23T15:17:55;14.13;;;4.15;;
74945;SDS011;63509;45.250;38.102;2023-02-23T15:20:26;15.10;;;5.20;;
74945;SDS011;63509;45.250;38.102;2023-02-23T15:22:59;9.32;;;4.78;;
74945;SDS011;63509;45.250;38.102;2023-02-23T15:25:35;13.95;;;4.72;;
74945;SDS011;63509;45.250;38.102;2023-02-23T15:28:15;13.52;;;5.60;;
74945;SDS011;63509;45.250;38.102;2023-02-23T15:30:45;12.10;;;5.22;;
74945;SDS011;63509;45.250;38.102;2023-02-23T15:33:14;8.23;;;5.05;;
74945;SDS011;63509;45.250;38.102;2023-02-23T15:38:24;13.38;;;5.57;;
74945;SDS011;63509;45.250;38.102;2023-02-23T15:41:01;11.13;;;4.53;;
74945;SDS011;63509;45.250;38.102;2023-02-23T15:43:31;11.43;;;5.97;;
74945;SDS011;63509;45.250;38.102;2023-02-23T15:45:59;12.43;;;6.05;;
74945;SDS011;63509;45.250;38.102;2023-02-23T15:48:37;11.18;;;6.32;;
74945;SDS011;63509;45.250;38.102;2023-02-23T15:51:56;7.70;;;4.30;;
74945;SDS011;63509;45.250;38.102;2023-02-23T15:54:05;9.95;;;5.05;;
74945;SDS011;63509;45.250;38.102;2023-02-23T15:56:55;9.65;;;5.18;;
74945;SDS011;63509;45.250;38.102;2023-02-23T15:59:27;9.63;;;5.18;;
74945;SDS011;63509;45.250;38.102;2023-02-23T16:02:11;18.10;;;8.13;;
74945;SDS011;63509;45.250;38.102;2023-02-23T16:04:42;12.95;;;6.13;;
74945;SDS011;63509;45.250;38.102;2023-02-23T16:07:19;10.32;;;6.25;;
74945;SDS011;63509;45.250;38.102;2023-02-23T16:09:46;9.20;;;5.47;;
74945;SDS011;63509;45.250;38.102;2023-02-23T16:12:27;10.10;;;5.43;;
74945;SDS011;63509;45.250;38.102;2023-02-23T16:14:58;9.02;;;4.63;;
74945;SDS011;63509;45.250;38.102;2023-02-23T16:20:33;15.65;;;6.32;;
74945;SDS011;63509;45.250;38.102;2023-02-23T16:23:03;7.65;;;4.75;;
74945;SDS011;63509;45.250;38.102;2023-02-23T16:25:31;9.57;;;4.32;;
74945;SDS011;63509;45.250;38.102;2023-02-23T16:35:44;9.85;;;4.10;;
74945;SDS011;63509;45.250;38.102;2023-02-23T16:38:23;11.63;;;5.22;;
74945;SDS011;63509;45.250;38.102;2023-02-23T16:40:51;15.93;;;5.47;;
74945;SDS011;63509;45.250;38.102;2023-02-23T16:43:17;14.90;;;6.05;;
74945;SDS011;63509;45.250;38.102;2023-02-23T16:45:43;13.80;;;5.53;;
74945;SDS011;63509;45.250;38.102;2023-02-23T16:48:10;7.95;;;4.57;;
74945;SDS011;63509;45.250;38.102;2023-02-23T16:50:41;10.25;;;5.22;;
74945;SDS011;63509;45.250;38.102;2023-02-23T16:53:10;10.07;;;5.35;;
74945;SDS011;63509;45.250;38.102;2023-02-23T16:55:41;12.40;;;8.00;;
74945;SDS011;63509;45.250;38.102;2023-02-23T16:58:15;10.80;;;5.80;;
74945;SDS011;63509;45.250;38.102;2023-02-23T17:00:44;12.75;;;7.18;;
74945;SDS011;63509;45.250;38.102;2023-02-23T17:03:14;14.02;;;8.75;;
74945;SDS011;63509;45.250;38.102;2023-02-23T17:05:46;12.90;;;8.13;;
74945;SDS011;63509;45.250;38.102;2023-02-23T17:08:13;12.32;;;5.65;;
74945;SDS011;63509;45.250;38.102;2023-02-23T17:10:39;14.85;;;7.55;;
74945;SDS011;63509;45.250;38.102;2023-02-23T17:13:07;10.50;;;6.88;;
74945;SDS011;63509;45.250;38.102;2023-02-23T17:15:40;14.27;;;5.40;;
74945;SDS011;63509;45.250;38.102;2023-02-23T17:18:12;14.77;;;6.47;;
74945;SDS011;63509;45.250;38.102;2023-02-23T17:20:38;11.05;;;6.13;;